sensor_id;sensor_type;location;lat;lon;timestamp;temperature;humidity
21255;DHT22;10785;50.674;17.954;2024-03-17T00:02:11;7.20;1.00
21255;DHT22;10785;50.674;17.954;2024-03-17T00:04:38;7.20;1.00
21255;DHT22;10785;50.674;17.954;2024-03-17T00:07:07;6.90;1.00
21255;DHT22;10785;50.674;17.954;2024-03-17T00:09:34;6.90;1.00
21255;DHT22;10785;50.674;17.954;2024-03-17T00:12:01;7.00;99.90
21255;DHT22;10785;50.674;17.954;2024-03-17T00:14:28;7.10;99.90
21255;DHT22;10785;50.674;17.954;2024-03-17T00:16:56;7.00;1.00
21255;DHT22;10785;50.674;17.954;2024-03-17T00:19:24;6.80;1.00
21255;DHT22;10785;50.674;17.954;2024-03-17T00:21:52;6.80;1.00
21255;DHT22;10785;50.674;17.954;2024-03-17T00:24:21;6.90;1.00
21255;DHT22;10785;50.674;17.954;2024-03-17T00:26:48;6.60;1.00
21255;DHT22;10785;50.674;17.954;2024-03-17T00:29:15;6.70;1.00
21255;DHT22;10785;50.674;17.954;2024-03-17T00:31:43;6.50;1.00
21255;DHT22;10785;50.674;17.954;2024-03-17T00:34:09;6.50;1.00
21255;DHT22;10785;50.674;17.954;2024-03-17T00:36:37;6.50;1.00
21255;DHT22;10785;50.674;17.954;2024-03-17T00:39:05;6.40;1.00
21255;DHT22;10785;50.674;17.954;2024-03-17T00:41:33;6.30;1.00
21255;DHT22;10785;50.674;17.954;2024-03-17T00:44:01;6.50;1.00
21255;DHT22;10785;50.674;17.954;2024-03-17T00:46:29;6.30;1.00
21255;DHT22;10785;50.674;17.954;2024-03-17T00:48:58;6.30;1.00
21255;DHT22;10785;50.674;17.954;2024-03-17T00:51:24;6.10;1.00
21255;DHT22;10785;50.674;17.954;2024-03-17T00:53:52;6.10;1.00
21255;DHT22;10785;50.674;17.954;2024-03-17T00:56:19;6.60;1.00
21255;DHT22;10785;50.674;17.954;2024-03-17T00:58:48;6.10;1.00
21255;DHT22;10785;50.674;17.954;2024-03-17T01:01:17;6.00;1.00
21255;DHT22;10785;50.674;17.954;2024-03-17T01:03:46;6.10;1.00
21255;DHT22;10785;50.674;17.954;2024-03-17T01:06:12;6.00;1.00
21255;DHT22;10785;50.674;17.954;2024-03-17T01:08:40;6.00;1.00
21255;DHT22;10785;50.674;17.954;2024-03-17T01:11:07;5.90;1.00
21255;DHT22;10785;50.674;17.954;2024-03-17T01:13:35;5.90;1.00
21255;DHT22;10785;50.674;17.954;2024-03-17T01:16:09;5.80;1.00
21255;DHT22;10785;50.674;17.954;2024-03-17T01:18:35;6.00;1.00
21255;DHT22;10785;50.674;17.954;2024-03-17T01:21:03;5.90;1.00
21255;DHT22;10785;50.674;17.954;2024-03-17T01:23:30;5.80;1.00
21255;DHT22;10785;50.674;17.954;2024-03-17T01:25:58;5.70;1.00
21255;DHT22;10785;50.674;17.954;2024-03-17T01:28:24;5.60;1.00
21255;DHT22;10785;50.674;17.954;2024-03-17T01:30:53;5.70;1.00
21255;DHT22;10785;50.674;17.954;2024-03-17T01:33:21;5.70;1.00
21255;DHT22;10785;50.674;17.954;2024-03-17T01:35:48;5.60;1.00
21255;DHT22;10785;50.674;17.954;2024-03-17T01:38:15;5.80;1.00
21255;DHT22;10785;50.674;17.954;2024-03-17T01:40:42;5.30;1.00
21255;DHT22;10785;50.674;17.954;2024-03-17T01:43:10;5.60;1.00
21255;DHT22;10785;50.674;17.954;2024-03-17T01:45:38;5.50;1.00
21255;DHT22;10785;50.674;17.954;2024-03-17T01:48:10;5.50;1.00
21255;DHT22;10785;50.674;17.954;2024-03-17T01:50:42;5.50;1.00
21255;DHT22;10785;50.674;17.954;2024-03-17T01:53:11;5.40;1.00
21255;DHT22;10785;50.674;17.954;2024-03-17T01:55:43;5.50;1.00
21255;DHT22;10785;50.674;17.954;2024-03-17T01:58:10;5.30;1.00
21255;DHT22;10785;50.674;17.954;2024-03-17T02:00:37;5.40;1.00
21255;DHT22;10785;50.674;17.954;2024-03-17T02:03:04;5.30;1.00
21255;DHT22;10785;50.674;17.954;2024-03-17T02:05:32;5.40;1.00
21255;DHT22;10785;50.674;17.954;2024-03-17T02:08:01;5.30;37.90
21255;DHT22;10785;50.674;17.954;2024-03-17T02:10:28;6.20;83.20
21255;DHT22;10785;50.674;17.954;2024-03-17T02:12:55;5.30;99.90
21255;DHT22;10785;50.674;17.954;2024-03-17T02:15:23;5.00;99.90
21255;DHT22;10785;50.674;17.954;2024-03-17T02:18:09;5.30;99.90
21255;DHT22;10785;50.674;17.954;2024-03-17T02:20:37;5.20;99.90
21255;DHT22;10785;50.674;17.954;2024-03-17T02:23:23;5.30;99.90
21255;DHT22;10785;50.674;17.954;2024-03-17T02:25:53;5.20;99.90
21255;DHT22;10785;50.674;17.954;2024-03-17T02:28:21;5.10;1.00
21255;DHT22;10785;50.674;17.954;2024-03-17T02:30:47;5.10;1.00
21255;DHT22;10785;50.674;17.954;2024-03-17T02:33:15;5.70;1.00
21255;DHT22;10785;50.674;17.954;2024-03-17T02:35:41;4.90;1.00
21255;DHT22;10785;50.674;17.954;2024-03-17T02:38:09;5.00;1.00
21255;DHT22;10785;50.674;17.954;2024-03-17T02:40:42;4.80;1.00
21255;DHT22;10785;50.674;17.954;2024-03-17T02:43:10;4.90;1.00
21255;DHT22;10785;50.674;17.954;2024-03-17T02:45:37;5.00;1.00
21255;DHT22;10785;50.674;17.954;2024-03-17T02:48:06;4.90;1.00
21255;DHT22;10785;50.674;17.954;2024-03-17T02:50:34;4.90;1.00
21255;DHT22;10785;50.674;17.954;2024-03-17T02:53:01;4.80;1.00
21255;DHT22;10785;50.674;17.954;2024-03-17T02:55:29;4.80;1.00
21255;DHT22;10785;50.674;17.954;2024-03-17T02:57:58;4.90;1.00
21255;DHT22;10785;50.674;17.954;2024-03-17T03:00:26;5.00;1.00
21255;DHT22;10785;50.674;17.954;2024-03-17T03:02:53;4.90;1.00
21255;DHT22;10785;50.674;17.954;2024-03-17T03:05:21;4.70;1.00
21255;DHT22;10785;50.674;17.954;2024-03-17T03:07:48;4.80;1.00
21255;DHT22;10785;50.674;17.954;2024-03-17T03:10:16;4.80;12.90
21255;DHT22;10785;50.674;17.954;2024-03-17T03:12:44;4.60;28.30
21255;DHT22;10785;50.674;17.954;2024-03-17T03:15:13;4.70;1.00
21255;DHT22;10785;50.674;17.954;2024-03-17T03:17:41;4.60;1.00
21255;DHT22;10785;50.674;17.954;2024-03-17T03:20:09;4.60;1.00
21255;DHT22;10785;50.674;17.954;2024-03-17T03:22:38;4.70;1.00
21255;DHT22;10785;50.674;17.954;2024-03-17T03:25:06;4.70;1.00
21255;DHT22;10785;50.674;17.954;2024-03-17T03:27:34;4.60;1.00
21255;DHT22;10785;50.674;17.954;2024-03-17T03:30:01;4.70;1.00
21255;DHT22;10785;50.674;17.954;2024-03-17T03:32:31;4.90;1.00
21255;DHT22;10785;50.674;17.954;2024-03-17T03:34:59;4.60;1.00
21255;DHT22;10785;50.674;17.954;2024-03-17T03:37:29;4.50;1.00
21255;DHT22;10785;50.674;17.954;2024-03-17T03:39:57;5.20;1.00
21255;DHT22;10785;50.674;17.954;2024-03-17T03:42:24;4.60;1.00
21255;DHT22;10785;50.674;17.954;2024-03-17T03:44:52;4.60;1.00
21255;DHT22;10785;50.674;17.954;2024-03-17T03:47:19;4.70;1.00
21255;DHT22;10785;50.674;17.954;2024-03-17T03:49:48;5.50;99.90
21255;DHT22;10785;50.674;17.954;2024-03-17T03:52:16;4.50;99.90
21255;DHT22;10785;50.674;17.954;2024-03-17T03:54:43;4.60;99.90
21255;DHT22;10785;50.674;17.954;2024-03-17T03:57:11;4.50;99.90
21255;DHT22;10785;50.674;17.954;2024-03-17T03:59:38;4.40;99.90
21255;DHT22;10785;50.674;17.954;2024-03-17T04:02:06;4.50;99.90
21255;DHT22;10785;50.674;17.954;2024-03-17T04:04:33;4.80;99.90
21255;DHT22;10785;50.674;17.954;2024-03-17T04:07:02;4.40;99.90
21255;DHT22;10785;50.674;17.954;2024-03-17T04:09:30;4.40;1.00
21255;DHT22;10785;50.674;17.954;2024-03-17T04:11:58;4.30;1.00
21255;DHT22;10785;50.674;17.954;2024-03-17T04:14:25;4.50;1.00
21255;DHT22;10785;50.674;17.954;2024-03-17T04:16:53;4.40;1.00
21255;DHT22;10785;50.674;17.954;2024-03-17T04:19:20;4.40;1.00
21255;DHT22;10785;50.674;17.954;2024-03-17T04:21:48;4.20;1.00
21255;DHT22;10785;50.674;17.954;2024-03-17T04:24:17;4.30;1.00
21255;DHT22;10785;50.674;17.954;2024-03-17T04:26:44;4.60;99.90
21255;DHT22;10785;50.674;17.954;2024-03-17T04:29:12;4.40;99.90
21255;DHT22;10785;50.674;17.954;2024-03-17T04:31:39;4.10;99.90
21255;DHT22;10785;50.674;17.954;2024-03-17T04:34:08;4.30;99.90
21255;DHT22;10785;50.674;17.954;2024-03-17T04:36:35;4.30;99.90
21255;DHT22;10785;50.674;17.954;2024-03-17T04:39:03;4.10;99.90
21255;DHT22;10785;50.674;17.954;2024-03-17T04:41:35;4.20;99.90
21255;DHT22;10785;50.674;17.954;2024-03-17T04:44:04;4.20;99.90
21255;DHT22;10785;50.674;17.954;2024-03-17T04:46:32;4.40;99.90
21255;DHT22;10785;50.674;17.954;2024-03-17T04:49:00;4.20;99.90
21255;DHT22;10785;50.674;17.954;2024-03-17T04:51:29;4.20;99.90
21255;DHT22;10785;50.674;17.954;2024-03-17T04:53:59;3.80;99.90
21255;DHT22;10785;50.674;17.954;2024-03-17T05:23:37;5.00;1.00
21255;DHT22;10785;50.674;17.954;2024-03-17T05:26:11;5.30;1.00
21255;DHT22;10785;50.674;17.954;2024-03-17T05:28:38;5.90;99.90
21255;DHT22;10785;50.674;17.954;2024-03-17T05:31:06;6.20;99.90
21255;DHT22;10785;50.674;17.954;2024-03-17T05:33:35;6.50;98.40
21255;DHT22;10785;50.674;17.954;2024-03-17T05:36:03;6.10;66.50
21255;DHT22;10785;50.674;17.954;2024-03-17T05:38:31;6.10;90.00
21255;DHT22;10785;50.674;17.954;2024-03-17T05:41:00;6.70;99.90
21255;DHT22;10785;50.674;17.954;2024-03-17T05:43:28;7.00;1.00
21255;DHT22;10785;50.674;17.954;2024-03-17T05:45:57;6.90;1.00
21255;DHT22;10785;50.674;17.954;2024-03-17T05:48:25;7.00;1.00
21255;DHT22;10785;50.674;17.954;2024-03-17T05:50:55;7.00;1.00
21255;DHT22;10785;50.674;17.954;2024-03-17T05:53:23;6.70;1.00
21255;DHT22;10785;50.674;17.954;2024-03-17T05:55:53;6.70;1.00
21255;DHT22;10785;50.674;17.954;2024-03-17T05:58:21;6.60;1.00
21255;DHT22;10785;50.674;17.954;2024-03-17T06:00:49;6.50;1.00
21255;DHT22;10785;50.674;17.954;2024-03-17T06:03:16;6.10;1.00
21255;DHT22;10785;50.674;17.954;2024-03-17T06:05:44;5.80;1.00
21255;DHT22;10785;50.674;17.954;2024-03-17T06:08:14;5.40;36.40
21255;DHT22;10785;50.674;17.954;2024-03-17T06:10:44;5.80;99.90
21255;DHT22;10785;50.674;17.954;2024-03-17T06:13:13;5.50;99.90
21255;DHT22;10785;50.674;17.954;2024-03-17T06:15:44;5.70;99.90
21255;DHT22;10785;50.674;17.954;2024-03-17T06:18:13;5.80;99.90
21255;DHT22;10785;50.674;17.954;2024-03-17T06:20:44;5.50;99.90
21255;DHT22;10785;50.674;17.954;2024-03-17T06:23:14;5.30;99.90
21255;DHT22;10785;50.674;17.954;2024-03-17T06:25:44;5.20;99.90
21255;DHT22;10785;50.674;17.954;2024-03-17T06:28:12;5.40;99.90
21255;DHT22;10785;50.674;17.954;2024-03-17T06:30:41;5.30;99.90
21255;DHT22;10785;50.674;17.954;2024-03-17T06:33:13;5.80;99.90
21255;DHT22;10785;50.674;17.954;2024-03-17T06:35:41;5.20;99.90
21255;DHT22;10785;50.674;17.954;2024-03-17T06:38:08;5.50;99.90
21255;DHT22;10785;50.674;17.954;2024-03-17T06:40:39;5.30;93.50
21255;DHT22;10785;50.674;17.954;2024-03-17T06:43:07;5.60;59.40
21255;DHT22;10785;50.674;17.954;2024-03-17T06:45:34;5.30;27.30
21255;DHT22;10785;50.674;17.954;2024-03-17T06:48:02;5.20;25.60
21255;DHT22;10785;50.674;17.954;2024-03-17T06:50:30;5.10;24.20
21255;DHT22;10785;50.674;17.954;2024-03-17T06:52:57;5.40;27.50
21255;DHT22;10785;50.674;17.954;2024-03-17T06:55:25;5.30;99.90
21255;DHT22;10785;50.674;17.954;2024-03-17T06:57:55;5.20;40.90
21255;DHT22;10785;50.674;17.954;2024-03-17T07:00:23;5.30;36.00
21255;DHT22;10785;50.674;17.954;2024-03-17T07:02:51;5.30;21.00
21255;DHT22;10785;50.674;17.954;2024-03-17T07:05:19;5.60;16.10
21255;DHT22;10785;50.674;17.954;2024-03-17T07:07:46;5.20;50.60
21255;DHT22;10785;50.674;17.954;2024-03-17T07:12:55;5.30;1.00
21255;DHT22;10785;50.674;17.954;2024-03-17T07:15:23;5.80;21.80
21255;DHT22;10785;50.674;17.954;2024-03-17T07:17:50;5.60;30.80
21255;DHT22;10785;50.674;17.954;2024-03-17T07:20:18;5.70;30.10
21255;DHT22;10785;50.674;17.954;2024-03-17T07:22:45;5.20;1.00
21255;DHT22;10785;50.674;17.954;2024-03-17T07:25:14;5.30;99.90
21255;DHT22;10785;50.674;17.954;2024-03-17T07:27:44;5.40;1.00
21255;DHT22;10785;50.674;17.954;2024-03-17T07:30:13;5.50;1.00
21255;DHT22;10785;50.674;17.954;2024-03-17T07:32:41;5.60;1.00
21255;DHT22;10785;50.674;17.954;2024-03-17T07:35:08;5.50;1.00
21255;DHT22;10785;50.674;17.954;2024-03-17T07:37:36;5.30;1.00
21255;DHT22;10785;50.674;17.954;2024-03-17T07:40:06;5.60;1.00
21255;DHT22;10785;50.674;17.954;2024-03-17T07:42:37;5.50;1.00
21255;DHT22;10785;50.674;17.954;2024-03-17T07:45:05;5.60;1.00
21255;DHT22;10785;50.674;17.954;2024-03-17T07:47:35;5.70;1.00
21255;DHT22;10785;50.674;17.954;2024-03-17T07:50:03;5.70;1.00
21255;DHT22;10785;50.674;17.954;2024-03-17T07:52:31;5.80;1.00
21255;DHT22;10785;50.674;17.954;2024-03-17T07:54:59;5.70;1.00
21255;DHT22;10785;50.674;17.954;2024-03-17T07:57:29;6.40;1.00
21255;DHT22;10785;50.674;17.954;2024-03-17T07:59:57;5.70;1.00
21255;DHT22;10785;50.674;17.954;2024-03-17T08:02:24;5.80;1.00
21255;DHT22;10785;50.674;17.954;2024-03-17T08:04:53;5.70;1.00
21255;DHT22;10785;50.674;17.954;2024-03-17T08:07:21;5.80;1.00
21255;DHT22;10785;50.674;17.954;2024-03-17T08:09:49;5.80;1.00
21255;DHT22;10785;50.674;17.954;2024-03-17T08:12:16;6.00;1.00
21255;DHT22;10785;50.674;17.954;2024-03-17T08:14:44;6.10;1.00
21255;DHT22;10785;50.674;17.954;2024-03-17T08:17:11;6.10;1.00
21255;DHT22;10785;50.674;17.954;2024-03-17T08:19:39;6.20;1.00
21255;DHT22;10785;50.674;17.954;2024-03-17T08:22:09;6.10;1.00
21255;DHT22;10785;50.674;17.954;2024-03-17T08:24:36;6.10;1.00
21255;DHT22;10785;50.674;17.954;2024-03-17T08:27:04;6.30;1.00
21255;DHT22;10785;50.674;17.954;2024-03-17T08:29:32;6.10;1.00
21255;DHT22;10785;50.674;17.954;2024-03-17T08:32:00;6.10;1.00
21255;DHT22;10785;50.674;17.954;2024-03-17T08:34:28;6.40;1.00
21255;DHT22;10785;50.674;17.954;2024-03-17T08:36:55;6.10;1.00
21255;DHT22;10785;50.674;17.954;2024-03-17T08:39:24;5.80;1.00
21255;DHT22;10785;50.674;17.954;2024-03-17T08:41:52;5.90;1.00
21255;DHT22;10785;50.674;17.954;2024-03-17T08:44:20;5.80;1.00
21255;DHT22;10785;50.674;17.954;2024-03-17T08:46:47;5.80;1.00
21255;DHT22;10785;50.674;17.954;2024-03-17T08:49:15;5.90;1.00
21255;DHT22;10785;50.674;17.954;2024-03-17T08:51:42;6.00;1.00
21255;DHT22;10785;50.674;17.954;2024-03-17T08:54:10;6.20;1.00
21255;DHT22;10785;50.674;17.954;2024-03-17T08:56:39;6.50;1.00
21255;DHT22;10785;50.674;17.954;2024-03-17T08:59:07;6.80;1.00
21255;DHT22;10785;50.674;17.954;2024-03-17T09:01:38;7.10;1.00
21255;DHT22;10785;50.674;17.954;2024-03-17T09:04:06;6.90;1.00
21255;DHT22;10785;50.674;17.954;2024-03-17T09:06:34;6.60;1.00
21255;DHT22;10785;50.674;17.954;2024-03-17T09:09:01;6.60;1.00
21255;DHT22;10785;50.674;17.954;2024-03-17T09:11:29;6.50;1.00
21255;DHT22;10785;50.674;17.954;2024-03-17T09:13:58;6.70;1.00
21255;DHT22;10785;50.674;17.954;2024-03-17T09:16:27;7.00;1.00
21255;DHT22;10785;50.674;17.954;2024-03-17T09:18:56;7.20;1.00
21255;DHT22;10785;50.674;17.954;2024-03-17T09:21:24;7.40;1.00
21255;DHT22;10785;50.674;17.954;2024-03-17T09:23:52;7.20;1.00
21255;DHT22;10785;50.674;17.954;2024-03-17T09:26:19;6.80;1.00
21255;DHT22;10785;50.674;17.954;2024-03-17T09:28:47;7.30;1.00
21255;DHT22;10785;50.674;17.954;2024-03-17T09:31:16;7.40;1.00
21255;DHT22;10785;50.674;17.954;2024-03-17T09:33:43;7.50;1.00
21255;DHT22;10785;50.674;17.954;2024-03-17T09:36:13;7.50;1.00
21255;DHT22;10785;50.674;17.954;2024-03-17T09:38:41;7.40;1.00
21255;DHT22;10785;50.674;17.954;2024-03-17T09:41:17;7.40;1.00
21255;DHT22;10785;50.674;17.954;2024-03-17T09:43:47;7.30;1.00
21255;DHT22;10785;50.674;17.954;2024-03-17T09:46:17;7.20;1.00
21255;DHT22;10785;50.674;17.954;2024-03-17T09:48:45;6.90;1.00
21255;DHT22;10785;50.674;17.954;2024-03-17T09:51:18;6.80;1.00
21255;DHT22;10785;50.674;17.954;2024-03-17T09:53:47;4.30;1.00
21255;DHT22;10785;50.674;17.954;2024-03-17T09:56:15;6.60;1.00
21255;DHT22;10785;50.674;17.954;2024-03-17T09:58:45;6.70;1.00
21255;DHT22;10785;50.674;17.954;2024-03-17T10:01:13;6.80;1.00
21255;DHT22;10785;50.674;17.954;2024-03-17T10:03:46;6.80;1.00
21255;DHT22;10785;50.674;17.954;2024-03-17T10:06:18;6.70;1.00
21255;DHT22;10785;50.674;17.954;2024-03-17T10:08:47;6.80;1.00
21255;DHT22;10785;50.674;17.954;2024-03-17T10:11:17;6.90;1.00
21255;DHT22;10785;50.674;17.954;2024-03-17T10:13:46;7.10;1.00
21255;DHT22;10785;50.674;17.954;2024-03-17T10:16:21;7.30;1.00
21255;DHT22;10785;50.674;17.954;2024-03-17T10:19:06;7.80;1.00
21255;DHT22;10785;50.674;17.954;2024-03-17T10:21:34;7.90;1.00
21255;DHT22;10785;50.674;17.954;2024-03-17T10:24:12;7.70;1.00
21255;DHT22;10785;50.674;17.954;2024-03-17T10:26:43;7.80;1.00
21255;DHT22;10785;50.674;17.954;2024-03-17T10:29:28;7.30;1.00
21255;DHT22;10785;50.674;17.954;2024-03-17T10:31:58;7.20;1.00
21255;DHT22;10785;50.674;17.954;2024-03-17T10:34:30;6.80;1.00
21255;DHT22;10785;50.674;17.954;2024-03-17T10:37:08;6.60;1.00
21255;DHT22;10785;50.674;17.954;2024-03-17T10:39:38;7.20;1.00
21255;DHT22;10785;50.674;17.954;2024-03-17T10:42:08;7.50;1.00
21255;DHT22;10785;50.674;17.954;2024-03-17T10:44:37;8.00;1.00
21255;DHT22;10785;50.674;17.954;2024-03-17T10:47:06;8.00;1.00
21255;DHT22;10785;50.674;17.954;2024-03-17T10:49:38;8.30;1.00
21255;DHT22;10785;50.674;17.954;2024-03-17T10:52:07;8.60;1.00
21255;DHT22;10785;50.674;17.954;2024-03-17T10:54:36;8.30;1.00
21255;DHT22;10785;50.674;17.954;2024-03-17T10:57:12;7.70;1.00
21255;DHT22;10785;50.674;17.954;2024-03-17T10:59:47;7.60;1.00
21255;DHT22;10785;50.674;17.954;2024-03-17T11:02:23;7.80;1.00
21255;DHT22;10785;50.674;17.954;2024-03-17T11:04:54;7.60;1.00
21255;DHT22;10785;50.674;17.954;2024-03-17T11:07:22;7.40;1.00
21255;DHT22;10785;50.674;17.954;2024-03-17T11:09:51;7.40;1.00
21255;DHT22;10785;50.674;17.954;2024-03-17T11:12:41;7.30;1.00
21255;DHT22;10785;50.674;17.954;2024-03-17T11:15:38;7.20;1.00
21255;DHT22;10785;50.674;17.954;2024-03-17T11:18:39;7.20;1.00
21255;DHT22;10785;50.674;17.954;2024-03-17T11:21:20;7.30;1.00
21255;DHT22;10785;50.674;17.954;2024-03-17T11:23:56;7.20;1.00
21255;DHT22;10785;50.674;17.954;2024-03-17T11:26:27;7.20;1.00
21255;DHT22;10785;50.674;17.954;2024-03-17T11:28:55;7.40;1.00
21255;DHT22;10785;50.674;17.954;2024-03-17T11:31:37;7.60;1.00
21255;DHT22;10785;50.674;17.954;2024-03-17T11:34:27;7.60;1.00
21255;DHT22;10785;50.674;17.954;2024-03-17T11:36:56;7.50;1.00
21255;DHT22;10785;50.674;17.954;2024-03-17T11:39:46;7.50;1.00
21255;DHT22;10785;50.674;17.954;2024-03-17T11:42:16;7.80;1.00
21255;DHT22;10785;50.674;17.954;2024-03-17T11:44:56;8.00;1.00
21255;DHT22;10785;50.674;17.954;2024-03-17T11:47:33;8.10;1.00
21255;DHT22;10785;50.674;17.954;2024-03-17T11:50:06;8.20;1.00
21255;DHT22;10785;50.674;17.954;2024-03-17T11:52:35;8.30;1.00
21255;DHT22;10785;50.674;17.954;2024-03-17T11:55:03;8.70;1.00
21255;DHT22;10785;50.674;17.954;2024-03-17T11:57:31;9.40;1.00
21255;DHT22;10785;50.674;17.954;2024-03-17T11:59:58;9.30;1.00
21255;DHT22;10785;50.674;17.954;2024-03-17T12:02:26;8.90;1.00
21255;DHT22;10785;50.674;17.954;2024-03-17T12:04:58;8.70;1.00
21255;DHT22;10785;50.674;17.954;2024-03-17T12:07:24;8.30;1.00
21255;DHT22;10785;50.674;17.954;2024-03-17T12:09:56;7.80;1.00
21255;DHT22;10785;50.674;17.954;2024-03-17T12:12:25;7.60;1.00
21255;DHT22;10785;50.674;17.954;2024-03-17T12:15:03;7.40;1.00
21255;DHT22;10785;50.674;17.954;2024-03-17T12:17:32;7.60;1.00
21255;DHT22;10785;50.674;17.954;2024-03-17T12:19:59;7.90;1.00
21255;DHT22;10785;50.674;17.954;2024-03-17T12:22:27;8.10;1.00
21255;DHT22;10785;50.674;17.954;2024-03-17T12:25:00;8.40;1.00
21255;DHT22;10785;50.674;17.954;2024-03-17T12:27:29;8.50;1.00
21255;DHT22;10785;50.674;17.954;2024-03-17T12:29:57;8.70;1.00
21255;DHT22;10785;50.674;17.954;2024-03-17T12:32:25;9.20;1.00
21255;DHT22;10785;50.674;17.954;2024-03-17T12:34:55;9.30;1.00
21255;DHT22;10785;50.674;17.954;2024-03-17T12:37:22;9.50;1.00
21255;DHT22;10785;50.674;17.954;2024-03-17T12:39:51;9.10;1.00
21255;DHT22;10785;50.674;17.954;2024-03-17T12:42:24;8.90;1.00
21255;DHT22;10785;50.674;17.954;2024-03-17T12:44:53;9.00;1.00
21255;DHT22;10785;50.674;17.954;2024-03-17T12:47:22;9.00;1.00
21255;DHT22;10785;50.674;17.954;2024-03-17T12:49:51;8.10;1.00
21255;DHT22;10785;50.674;17.954;2024-03-17T12:52:20;8.00;1.00
21255;DHT22;10785;50.674;17.954;2024-03-17T12:54:56;7.90;1.00
21255;DHT22;10785;50.674;17.954;2024-03-17T12:57:48;7.90;1.00
21255;DHT22;10785;50.674;17.954;2024-03-17T13:00:34;8.20;1.00
21255;DHT22;10785;50.674;17.954;2024-03-17T13:03:02;8.80;1.00
21255;DHT22;10785;50.674;17.954;2024-03-17T13:05:31;9.10;1.00
21255;DHT22;10785;50.674;17.954;2024-03-17T13:07:59;9.20;1.00
21255;DHT22;10785;50.674;17.954;2024-03-17T13:10:29;9.30;1.00
21255;DHT22;10785;50.674;17.954;2024-03-17T13:13:00;9.30;1.00
21255;DHT22;10785;50.674;17.954;2024-03-17T13:15:29;9.20;1.00
21255;DHT22;10785;50.674;17.954;2024-03-17T13:17:58;9.30;1.00
21255;DHT22;10785;50.674;17.954;2024-03-17T13:20:26;9.20;1.00
21255;DHT22;10785;50.674;17.954;2024-03-17T13:22:54;9.30;1.00
21255;DHT22;10785;50.674;17.954;2024-03-17T13:25:22;8.80;1.00
21255;DHT22;10785;50.674;17.954;2024-03-17T13:27:52;8.50;1.00
21255;DHT22;10785;50.674;17.954;2024-03-17T13:30:23;8.30;1.00
21255;DHT22;10785;50.674;17.954;2024-03-17T13:32:53;8.30;1.00
21255;DHT22;10785;50.674;17.954;2024-03-17T13:35:25;8.00;1.00
21255;DHT22;10785;50.674;17.954;2024-03-17T13:37:53;8.10;1.00
21255;DHT22;10785;50.674;17.954;2024-03-17T13:40:23;8.00;1.00
21255;DHT22;10785;50.674;17.954;2024-03-17T13:42:51;8.30;1.00
21255;DHT22;10785;50.674;17.954;2024-03-17T13:45:22;8.40;1.00
21255;DHT22;10785;50.674;17.954;2024-03-17T13:47:57;8.60;1.00
21255;DHT22;10785;50.674;17.954;2024-03-17T13:50:26;9.10;1.00
21255;DHT22;10785;50.674;17.954;2024-03-17T13:52:54;9.60;1.00
21255;DHT22;10785;50.674;17.954;2024-03-17T13:55:24;9.30;1.00
21255;DHT22;10785;50.674;17.954;2024-03-17T13:57:53;9.90;1.00
21255;DHT22;10785;50.674;17.954;2024-03-17T14:00:23;9.40;1.00
21255;DHT22;10785;50.674;17.954;2024-03-17T14:02:52;8.90;1.00
21255;DHT22;10785;50.674;17.954;2024-03-17T14:05:22;9.40;1.00
21255;DHT22;10785;50.674;17.954;2024-03-17T14:07:52;9.50;1.00
21255;DHT22;10785;50.674;17.954;2024-03-17T14:10:23;9.40;1.00
21255;DHT22;10785;50.674;17.954;2024-03-17T14:12:51;9.40;1.00
21255;DHT22;10785;50.674;17.954;2024-03-17T14:15:21;9.70;1.00
21255;DHT22;10785;50.674;17.954;2024-03-17T14:17:49;9.60;1.00
21255;DHT22;10785;50.674;17.954;2024-03-17T14:20:17;9.50;1.00
21255;DHT22;10785;50.674;17.954;2024-03-17T14:22:46;9.50;1.00
21255;DHT22;10785;50.674;17.954;2024-03-17T14:25:20;9.40;1.00
21255;DHT22;10785;50.674;17.954;2024-03-17T14:27:49;9.10;1.00
21255;DHT22;10785;50.674;17.954;2024-03-17T14:30:18;9.40;1.00
21255;DHT22;10785;50.674;17.954;2024-03-17T14:32:48;9.00;1.00
21255;DHT22;10785;50.674;17.954;2024-03-17T14:35:16;8.90;1.00
21255;DHT22;10785;50.674;17.954;2024-03-17T14:37:44;8.80;1.00
21255;DHT22;10785;50.674;17.954;2024-03-17T14:40:16;8.70;1.00
21255;DHT22;10785;50.674;17.954;2024-03-17T14:42:48;8.70;1.00
21255;DHT22;10785;50.674;17.954;2024-03-17T14:45:16;8.60;1.00
21255;DHT22;10785;50.674;17.954;2024-03-17T14:47:45;8.80;1.00
21255;DHT22;10785;50.674;17.954;2024-03-17T14:50:14;8.70;1.00
21255;DHT22;10785;50.674;17.954;2024-03-17T14:52:43;8.70;1.00
21255;DHT22;10785;50.674;17.954;2024-03-17T14:55:10;8.60;1.00
21255;DHT22;10785;50.674;17.954;2024-03-17T14:57:39;8.50;1.00
21255;DHT22;10785;50.674;17.954;2024-03-17T15:00:10;8.40;1.00
21255;DHT22;10785;50.674;17.954;2024-03-17T15:02:43;8.20;1.00
21255;DHT22;10785;50.674;17.954;2024-03-17T15:05:13;8.10;1.00
21255;DHT22;10785;50.674;17.954;2024-03-17T15:07:42;8.10;1.00
21255;DHT22;10785;50.674;17.954;2024-03-17T15:10:09;8.20;1.00
21255;DHT22;10785;50.674;17.954;2024-03-17T15:12:38;8.20;1.00
21255;DHT22;10785;50.674;17.954;2024-03-17T15:15:08;8.20;1.00
21255;DHT22;10785;50.674;17.954;2024-03-17T15:17:37;8.30;1.00
21255;DHT22;10785;50.674;17.954;2024-03-17T15:20:05;8.80;1.00
21255;DHT22;10785;50.674;17.954;2024-03-17T15:22:44;8.20;1.00
21255;DHT22;10785;50.674;17.954;2024-03-17T15:25:12;8.30;1.00
21255;DHT22;10785;50.674;17.954;2024-03-17T15:27:41;8.50;1.00
21255;DHT22;10785;50.674;17.954;2024-03-17T15:30:12;8.30;1.00
21255;DHT22;10785;50.674;17.954;2024-03-17T15:32:41;8.40;1.00
21255;DHT22;10785;50.674;17.954;2024-03-17T15:35:10;8.40;1.00
21255;DHT22;10785;50.674;17.954;2024-03-17T15:37:39;8.20;1.00
21255;DHT22;10785;50.674;17.954;2024-03-17T15:40:11;8.10;1.00
21255;DHT22;10785;50.674;17.954;2024-03-17T15:42:44;8.00;1.00
21255;DHT22;10785;50.674;17.954;2024-03-17T15:45:13;8.00;1.00
21255;DHT22;10785;50.674;17.954;2024-03-17T15:47:41;8.00;1.00
21255;DHT22;10785;50.674;17.954;2024-03-17T15:50:09;8.00;1.00
21255;DHT22;10785;50.674;17.954;2024-03-17T15:55:20;7.90;1.00
21255;DHT22;10785;50.674;17.954;2024-03-17T15:57:49;8.00;1.00
21255;DHT22;10785;50.674;17.954;2024-03-17T16:00:17;8.10;1.00
21255;DHT22;10785;50.674;17.954;2024-03-17T16:02:45;8.00;1.00
21255;DHT22;10785;50.674;17.954;2024-03-17T16:05:18;8.00;1.00
21255;DHT22;10785;50.674;17.954;2024-03-17T16:07:47;8.00;1.00
21255;DHT22;10785;50.674;17.954;2024-03-17T16:10:18;8.20;1.00
21255;DHT22;10785;50.674;17.954;2024-03-17T16:12:49;8.00;1.00
21255;DHT22;10785;50.674;17.954;2024-03-17T16:15:17;7.70;1.00
21255;DHT22;10785;50.674;17.954;2024-03-17T16:17:47;8.20;1.00
21255;DHT22;10785;50.674;17.954;2024-03-17T16:23:10;7.30;1.00
21255;DHT22;10785;50.674;17.954;2024-03-17T16:25:37;7.40;1.00
21255;DHT22;10785;50.674;17.954;2024-03-17T16:28:07;7.50;1.00
21255;DHT22;10785;50.674;17.954;2024-03-17T16:30:35;7.30;1.00
21255;DHT22;10785;50.674;17.954;2024-03-17T16:33:04;7.30;1.00